Time;durP1;ratioP1;P1;durP2;ratioP2;P2;SDS_P1;SDS_P2;PMS_P1;PMS_P2;Temp;Humidity;BMP_temperature;BMP_pressure;BME280_temperature;BME280_humidity;BME280_pressure;Samples;Min_cycle;Max_cycle;Signal;HPM_P1;HPM_P2
2022/08/10 00:02:32;;;;;;;;;;;;;;;22.54;31.04;97751.91;5036667;28;882;-76
2022/08/10 00:04:57;;;;;;;;;;;;;;;22.34;30.83;97738.00;5036484;28;983;-76
2022/08/10 00:07:23;;;;;;;;;;;;;;;22.22;31.10;97750.94;5036952;28;1000;-76
2022/08/10 00:09:48;;;;;;;;;;;;;;;22.47;30.89;97741.59;5036726;28;895;-76
2022/08/10 00:12:14;;;;;;;;;;;;;;;22.43;30.78;97734.44;5036505;28;991;-76
2022/08/10 00:14:39;;;;;;;;;;;;;;;22.39;31.27;97739.47;5036247;28;1902;-76
2022/08/10 00:17:05;;;;;;;;;;;;;;;22.53;31.06;97739.75;5036830;28;910;-77
2022/08/10 00:19:30;;;;;;;;;;;;;;;22.51;30.82;97747.94;5036661;28;865;-76
2022/08/10 00:21:55;;;;;;;;;;;;;;;22.50;31.13;97745.56;5036080;28;886;-76
2022/08/10 00:24:21;;;;;;;;;;;;;;;22.24;31.38;97734.28;5036052;28;924;-76
2022/08/10 00:26:46;;;;;;;;;;;;;;;22.47;30.95;97746.47;5036203;28;898;-76
2022/08/10 00:29:12;;;;;;;;;;;;;;;22.38;31.40;97743.53;5036068;28;908;-77
2022/08/10 00:31:37;;;;;;;;;;;;;;;22.34;31.29;97750.13;5036305;28;883;-76
2022/08/10 00:34:03;;;;;;;;;;;;;;;22.41;31.50;97748.31;5036028;28;1975;-76
2022/08/10 00:36:28;;;;;;;;;;;;;;;22.36;31.58;97744.00;5036417;28;918;-76
2022/08/10 00:38:53;;;;;;;;;;;;;;;22.41;31.57;97739.81;5036221;28;863;-76
2022/08/10 00:41:19;;;;;;;;;;;;;;;22.26;31.61;97737.44;5036076;28;976;-76
2022/08/10 00:43:44;;;;;;;;;;;;;;;22.12;31.84;97735.06;5035279;28;892;-76
2022/08/10 00:46:10;;;;;;;;;;;;;;;22.29;31.64;97736.53;5036465;28;883;-76
2022/08/10 00:48:35;;;;;;;;;;;;;;;22.39;31.32;97743.09;5033568;28;1053;-76
2022/08/10 00:51:01;;;;;;;;;;;;;;;22.43;31.55;97743.75;5036042;28;970;-76
2022/08/10 00:53:26;;;;;;;;;;;;;;;22.23;31.74;97731.91;5035990;28;1089;-76
2022/08/10 00:55:52;;;;;;;;;;;;;;;22.24;31.54;97737.13;5036030;28;1942;-76
2022/08/10 00:58:17;;;;;;;;;;;;;;;22.46;31.15;97750.56;5050959;28;914;-76
2022/08/10 01:00:43;;;;;;;;;;;;;;;22.60;31.15;97738.75;5035743;28;924;-77
2022/08/10 01:03:08;;;;;;;;;;;;;;;22.47;31.33;97729.47;5035975;28;909;-76
2022/08/10 01:05:35;;;;;;;;;;;;;;;22.34;31.46;97733.13;5036082;28;895;-76
2022/08/10 01:08:20;;;;;;;;;;;;;;;22.59;31.31;97734.31;5034583;28;884;-76
2022/08/10 01:10:49;;;;;;;;;;;;;;;22.49;31.08;97739.09;5035476;28;976;-76
2022/08/10 01:13:21;;;;;;;;;;;;;;;22.48;31.35;97733.88;5051075;28;908;-77
2022/08/10 01:15:46;;;;;;;;;;;;;;;22.60;31.24;97727.41;5035597;28;1981;-76
2022/08/10 01:18:13;;;;;;;;;;;;;;;22.39;31.61;97733.81;5035371;28;889;-76
2022/08/10 01:20:48;;;;;;;;;;;;;;;22.33;31.74;97730.75;5051159;28;951;-76
2022/08/10 01:23:13;;;;;;;;;;;;;;;22.56;30.85;97735.22;5035789;28;950;-76
2022/08/10 01:25:50;;;;;;;;;;;;;;;22.48;31.01;97725.38;5035559;28;908;-77
2022/08/10 01:28:48;;;;;;;;;;;;;;;22.54;30.72;97723.56;5050595;28;976;-76
2022/08/10 01:31:15;;;;;;;;;;;;;;;22.44;30.97;97719.06;5013305;28;1029;-77
2022/08/10 01:33:42;;;;;;;;;;;;;;;22.47;31.13;97712.44;4997116;28;1119;-76
2022/08/10 01:36:10;;;;;;;;;;;;;;;22.39;31.26;97725.31;4997135;28;1976;-76
2022/08/10 01:38:37;;;;;;;;;;;;;;;22.47;31.48;97729.47;4997275;28;1165;-76
2022/08/10 01:41:06;;;;;;;;;;;;;;;22.39;31.68;97716.78;4997088;28;1019;-76
2022/08/10 01:43:32;;;;;;;;;;;;;;;22.34;31.41;97716.13;4996840;28;1181;-76
2022/08/10 01:45:58;;;;;;;;;;;;;;;22.53;31.08;97710.63;5013412;28;995;-77
2022/08/10 01:48:27;;;;;;;;;;;;;;;22.29;31.64;97730.88;4996570;28;1248;-77
2022/08/10 01:50:54;;;;;;;;;;;;;;;22.33;31.50;97719.41;4997193;28;1030;-76
2022/08/10 01:53:21;;;;;;;;;;;;;;;22.64;30.97;97719.56;4964590;28;988;-76
2022/08/10 01:55:46;;;;;;;;;;;;;;;22.47;31.19;97724.56;5000098;28;1899;-76
2022/08/10 01:58:12;;;;;;;;;;;;;;;22.33;31.53;97725.88;5017270;28;960;-76
2022/08/10 02:00:38;;;;;;;;;;;;;;;22.41;31.19;97717.13;4977586;28;941;-76
2022/08/10 02:03:04;;;;;;;;;;;;;;;22.42;31.09;97721.53;4977739;28;956;-77
2022/08/10 02:05:30;;;;;;;;;;;;;;;22.62;30.94;97716.38;4977592;28;927;-76
2022/08/10 02:07:55;;;;;;;;;;;;;;;22.54;30.87;97717.88;4999813;28;1092;-77
2022/08/10 02:10:21;;;;;;;;;;;;;;;22.38;31.11;97718.03;5000668;28;960;-76
2022/08/10 02:12:47;;;;;;;;;;;;;;;22.40;31.11;97721.22;5000212;28;885;-76
2022/08/10 02:15:14;;;;;;;;;;;;;;;22.52;30.92;97726.84;5000305;28;1969;-77
2022/08/10 02:17:40;;;;;;;;;;;;;;;22.50;31.16;97712.34;5000311;28;972;-76
2022/08/10 02:20:07;;;;;;;;;;;;;;;22.40;31.19;97724.03;5000651;28;1022;-76
2022/08/10 02:22:32;;;;;;;;;;;;;;;22.50;31.19;97720.84;5000195;28;971;-77
2022/08/10 02:24:57;;;;;;;;;;;;;;;22.57;31.13;97728.31;5000286;28;1213;-76
2022/08/10 02:27:23;;;;;;;;;;;;;;;22.36;31.59;97730.63;5016388;28;1016;-76
2022/08/10 02:29:48;;;;;;;;;;;;;;;22.42;31.39;97735.72;4983725;28;994;-76
2022/08/10 02:32:14;;;;;;;;;;;;;;;22.33;31.39;97725.88;5011147;28;917;-76
2022/08/10 02:34:40;;;;;;;;;;;;;;;22.18;31.78;97724.78;5053862;28;1910;-76
2022/08/10 02:37:05;;;;;;;;;;;;;;;22.45;31.18;97734.81;5053637;28;1001;-77
2022/08/10 02:39:30;;;;;;;;;;;;;;;22.43;31.24;97725.94;5038394;28;901;-76
2022/08/10 02:42:03;;;;;;;;;;;;;;;22.33;31.35;97719.41;5054120;28;887;-76
2022/08/10 02:44:28;;;;;;;;;;;;;;;22.42;31.38;97730.81;5055485;28;975;-76
2022/08/10 02:47:14;;;;;;;;;;;;;;;22.40;31.15;97719.16;5055829;28;1185;-77
2022/08/10 02:49:45;;;;;;;;;;;;;;;22.38;31.24;97720.84;5055033;28;931;-76
2022/08/10 02:52:13;;;;;;;;;;;;;;;22.43;31.08;97740.91;5015943;28;1072;-77
2022/08/10 02:54:50;;;;;;;;;;;;;;;22.56;30.97;97729.56;4999299;28;1984;-77
2022/08/10 02:57:17;;;;;;;;;;;;;;;22.53;31.02;97736.13;4999621;28;1014;-76
2022/08/10 02:59:47;;;;;;;;;;;;;;;22.53;31.01;97744.63;5015567;28;938;-76
2022/08/10 03:02:13;;;;;;;;;;;;;;;22.46;30.89;97753.41;5015542;28;1094;-76
2022/08/10 03:04:48;;;;;;;;;;;;;;;22.35;31.41;97757.38;4995597;28;982;-76
2022/08/10 03:07:14;;;;;;;;;;;;;;;22.46;30.87;97757.03;4956379;28;1097;-77
2022/08/10 03:09:39;;;;;;;;;;;;;;;22.39;31.00;97756.47;4937646;29;963;-77
2022/08/10 03:12:05;;;;;;;;;;;;;;;22.43;31.02;97765.63;4918791;29;948;-76
2022/08/10 03:14:31;;;;;;;;;;;;;;;22.47;30.72;97758.59;4916821;29;1911;-77
2022/08/10 03:16:56;;;;;;;;;;;;;;;22.26;31.29;97760.13;4918952;29;996;-76
2022/08/10 03:19:22;;;;;;;;;;;;;;;22.32;31.32;97763.94;4899648;29;953;-76
2022/08/10 03:21:48;;;;;;;;;;;;;;;22.54;30.76;97761.22;4899942;29;983;-76
2022/08/10 03:24:14;;;;;;;;;;;;;;;22.49;30.75;97766.66;4902069;29;928;-76
2022/08/10 03:26:39;;;;;;;;;;;;;;;22.41;30.92;97766.09;4918545;29;972;-76
2022/08/10 03:29:05;;;;;;;;;;;;;;;22.53;30.81;97767.31;4918864;29;986;-76
2022/08/10 03:31:30;;;;;;;;;;;;;;;22.34;30.86;97772.03;4918422;29;956;-76
2022/08/10 03:33:56;;;;;;;;;;;;;;;22.55;30.47;97771.31;4937268;29;1927;-76
2022/08/10 03:36:21;;;;;;;;;;;;;;;22.50;30.81;97765.41;4936982;29;1390;-76
2022/08/10 03:38:53;;;;;;;;;;;;;;;22.43;30.67;97769.25;4964972;28;967;-76
2022/08/10 03:41:20;;;;;;;;;;;;;;;22.30;30.81;97772.13;4947465;29;1053;-77
2022/08/10 03:43:46;;;;;;;;;;;;;;;22.34;31.26;97772.03;4931001;29;1693;-76
2022/08/10 03:46:12;;;;;;;;;;;;;;;22.42;31.10;97766.91;4921246;29;1638;-76
2022/08/10 03:48:37;;;;;;;;;;;;;;;22.28;31.14;97774.63;4918066;29;1067;-76
2022/08/10 03:51:03;;;;;;;;;;;;;;;22.26;31.44;97771.44;4934112;29;958;-76
2022/08/10 03:53:28;;;;;;;;;;;;;;;22.44;30.94;97775.75;4917760;29;1730;-76
2022/08/10 03:55:54;;;;;;;;;;;;;;;22.42;30.99;97773.34;4919905;29;1977;-77
2022/08/10 03:58:19;;;;;;;;;;;;;;;22.36;31.26;97787.31;4936724;29;942;-76
2022/08/10 04:00:44;;;;;;;;;;;;;;;22.53;30.77;97787.16;4937037;29;982;-76
2022/08/10 04:03:10;;;;;;;;;;;;;;;22.44;30.97;97782.22;4935922;29;1720;-76
2022/08/10 04:05:36;;;;;;;;;;;;;;;22.55;30.74;97790.34;4936679;29;1015;-76
2022/08/10 04:08:01;;;;;;;;;;;;;;;22.53;30.66;97784.34;4925439;29;987;-76
2022/08/10 04:10:27;;;;;;;;;;;;;;;22.42;31.08;97784.69;4941292;28;1056;-76
2022/08/10 04:12:52;;;;;;;;;;;;;;;22.52;30.70;97789.22;4975251;28;978;-76
2022/08/10 04:15:18;;;;;;;;;;;;;;;22.57;30.39;97799.97;5002310;28;1985;-76
2022/08/10 04:17:43;;;;;;;;;;;;;;;22.33;31.28;97799.56;4993246;28;978;-76
2022/08/10 04:20:24;;;;;;;;;;;;;;;22.38;30.93;97800.22;4993886;28;2153;-76
2022/08/10 04:22:50;;;;;;;;;;;;;;;22.39;31.00;97810.34;4994489;28;975;-76
2022/08/10 04:25:16;;;;;;;;;;;;;;;22.40;30.79;97797.75;4974532;28;1338;-76
2022/08/10 04:27:42;;;;;;;;;;;;;;;22.32;31.08;97803.63;4935952;29;1302;-76
2022/08/10 04:30:07;;;;;;;;;;;;;;;22.56;30.64;97806.13;4920750;29;1066;-77
2022/08/10 04:32:33;;;;;;;;;;;;;;;22.54;30.55;97794.44;4939836;29;1009;-76
2022/08/10 04:34:58;;;;;;;;;;;;;;;22.42;31.01;97801.69;4933314;29;1910;-76
2022/08/10 04:37:24;;;;;;;;;;;;;;;22.43;31.02;97806.13;4936278;29;933;-76
2022/08/10 04:39:49;;;;;;;;;;;;;;;22.38;30.99;97808.72;4897949;29;1237;-76
2022/08/10 04:42:14;;;;;;;;;;;;;;;22.51;30.79;97803.84;4896622;29;1310;-77
2022/08/10 04:44:40;;;;;;;;;;;;;;;22.33;31.14;97805.25;4897049;29;1516;-77
2022/08/10 04:47:06;;;;;;;;;;;;;;;22.43;30.55;97806.13;4882175;29;1395;-77
2022/08/10 04:49:31;;;;;;;;;;;;;;;22.38;30.85;97811.56;4897658;29;1627;-77
2022/08/10 04:51:57;;;;;;;;;;;;;;;22.45;30.94;97811.34;4882925;29;992;-76
2022/08/10 04:54:22;;;;;;;;;;;;;;;22.38;31.12;97805.91;4898152;29;2038;-76
2022/08/10 04:56:48;;;;;;;;;;;;;;;22.29;30.97;97810.22;4884266;29;1331;-77
2022/08/10 04:59:13;;;;;;;;;;;;;;;22.21;31.25;97817.38;4891773;29;1340;-76
2022/08/10 05:01:39;;;;;;;;;;;;;;;22.34;31.02;97812.50;4897376;29;1379;-76
2022/08/10 05:04:04;;;;;;;;;;;;;;;22.17;31.40;97830.84;4898399;29;971;-76
2022/08/10 05:06:29;;;;;;;;;;;;;;;22.28;31.49;97816.38;4935374;29;965;-76
2022/08/10 05:08:55;;;;;;;;;;;;;;;22.33;31.31;97805.25;4935984;29;1044;-77
2022/08/10 05:11:20;;;;;;;;;;;;;;;21.95;32.06;97812.91;4936315;29;1394;-76
2022/08/10 05:13:46;;;;;;;;;;;;;;;22.51;30.80;97807.47;4935725;29;1044;-76
2022/08/10 05:16:11;;;;;;;;;;;;;;;22.28;31.57;97814.31;4934788;29;1918;-76
2022/08/10 05:18:37;;;;;;;;;;;;;;;22.42;31.01;97809.41;4917076;29;929;-76
2022/08/10 05:21:02;;;;;;;;;;;;;;;22.50;30.99;97807.94;4930266;29;1049;-76
2022/08/10 05:23:28;;;;;;;;;;;;;;;22.39;31.61;97816.00;4935780;29;978;-76
2022/08/10 05:25:53;;;;;;;;;;;;;;;22.33;31.78;97816.59;4938134;28;1425;-76
2022/08/10 05:28:18;;;;;;;;;;;;;;;22.38;31.66;97826.53;4986552;28;1529;-77
2022/08/10 05:30:44;;;;;;;;;;;;;;;22.15;32.00;97827.69;4997935;28;1063;-76
2022/08/10 05:33:09;;;;;;;;;;;;;;;22.57;30.99;97824.72;4997705;28;992;-77
2022/08/10 05:35:37;;;;;;;;;;;;;;;22.43;31.29;97819.50;4988129;28;1977;-77
2022/08/10 05:38:02;;;;;;;;;;;;;;;22.67;30.91;97817.88;4978253;28;949;-77
2022/08/10 05:40:29;;;;;;;;;;;;;;;22.46;31.41;97827.09;4923030;29;960;-76
2022/08/10 05:42:54;;;;;;;;;;;;;;;22.44;31.24;97826.78;4939371;29;987;-76
2022/08/10 05:45:20;;;;;;;;;;;;;;;22.36;31.38;97826.22;4953762;29;1007;-76
2022/08/10 05:47:46;;;;;;;;;;;;;;;22.50;31.41;97831.41;4965340;28;1390;-76
2022/08/10 05:50:12;;;;;;;;;;;;;;;22.44;31.58;97826.78;4939022;29;956;-76
2022/08/10 05:52:37;;;;;;;;;;;;;;;22.53;31.39;97829.69;4938711;29;1458;-76
2022/08/10 05:55:03;;;;;;;;;;;;;;;22.16;32.11;97840.59;4939642;29;1985;-76
2022/08/10 05:57:29;;;;;;;;;;;;;;;22.22;32.27;97847.28;4939298;29;923;-76
2022/08/10 05:59:56;;;;;;;;;;;;;;;22.53;31.55;97818.34;4938895;29;1018;-76
2022/08/10 06:02:30;;;;;;;;;;;;;;;22.37;31.86;97827.78;4939065;29;961;-76
2022/08/10 06:04:56;;;;;;;;;;;;;;;22.71;31.46;97841.25;4938999;29;1053;-76
2022/08/10 06:07:21;;;;;;;;;;;;;;;22.60;31.70;97830.28;4938502;29;1375;-76
2022/08/10 06:09:47;;;;;;;;;;;;;;;22.59;31.45;97827.91;4938126;29;1345;-77
2022/08/10 06:12:12;;;;;;;;;;;;;;;22.63;31.73;97839.91;4938415;29;923;-76
2022/08/10 06:17:21;;;;;;;;;;;;;;;22.41;31.97;97839.03;4958221;28;939;-76
2022/08/10 06:19:47;;;;;;;;;;;;;;;22.43;31.64;97814.63;4945224;29;1244;-76
2022/08/10 06:22:12;;;;;;;;;;;;;;;22.49;31.67;97818.50;4983986;28;1551;-77
2022/08/10 06:24:39;;;;;;;;;;;;;;;22.62;31.16;97824.13;4957735;29;1005;-76
2022/08/10 06:27:05;;;;;;;;;;;;;;;22.43;31.93;97825.97;4958127;29;1095;-76
2022/08/10 06:29:31;;;;;;;;;;;;;;;22.58;31.76;97827.09;4957927;29;1011;-76
2022/08/10 06:31:56;;;;;;;;;;;;;;;22.61;31.86;97842.41;4957994;29;934;-76
2022/08/10 06:34:27;;;;;;;;;;;;;;;22.49;31.68;97829.03;4941716;29;1981;-76
2022/08/10 06:36:53;;;;;;;;;;;;;;;22.55;31.92;97833.69;4990582;28;1372;-77
2022/08/10 06:39:18;;;;;;;;;;;;;;;22.56;31.99;97828.81;4980137;28;929;-76
2022/08/10 06:41:45;;;;;;;;;;;;;;;22.40;32.24;97831.78;4978229;28;939;-76
2022/08/10 06:44:13;;;;;;;;;;;;;;;22.64;31.77;97835.84;4977052;28;1121;-77
2022/08/10 06:46:39;;;;;;;;;;;;;;;22.73;31.92;97832.28;4976801;28;1071;-76
2022/08/10 06:49:05;;;;;;;;;;;;;;;22.59;32.08;97827.91;4960790;28;990;-76
2022/08/10 06:51:32;;;;;;;;;;;;;;;22.69;31.92;97826.75;4973314;28;1358;-77
2022/08/10 06:54:03;;;;;;;;;;;;;;;22.44;32.48;97838.13;4986139;28;1988;-76
2022/08/10 06:56:31;;;;;;;;;;;;;;;22.71;31.90;97823.44;4993267;28;952;-77
2022/08/10 06:58:58;;;;;;;;;;;;;;;22.53;32.26;97818.34;4995653;28;951;-76
2022/08/10 07:01:27;;;;;;;;;;;;;;;22.32;32.76;97819.84;4996148;28;976;-76
2022/08/10 07:03:57;;;;;;;;;;;;;;;22.39;32.29;97830.19;5012622;28;1011;-76
2022/08/10 07:06:23;;;;;;;;;;;;;;;22.66;32.14;97819.16;5005077;28;1397;-76
2022/08/10 07:08:48;;;;;;;;;;;;;;;22.72;32.08;97830.69;4995928;28;957;-76
2022/08/10 07:11:14;;;;;;;;;;;;;;;22.65;32.48;97825.28;4995932;28;1129;-76
2022/08/10 07:13:40;;;;;;;;;;;;;;;22.51;32.49;97826.53;4995830;28;998;-76
2022/08/10 07:16:07;;;;;;;;;;;;;;;22.58;32.50;97827.09;4976436;28;1929;-76
2022/08/10 07:18:32;;;;;;;;;;;;;;;22.63;32.52;97829.34;4937403;29;1106;-76
2022/08/10 07:21:00;;;;;;;;;;;;;;;22.90;31.85;97830.09;4921432;29;1371;-76
2022/08/10 07:23:26;;;;;;;;;;;;;;;22.70;32.48;97828.34;4937649;29;960;-76
2022/08/10 07:25:51;;;;;;;;;;;;;;;22.63;32.70;97820.03;4921600;29;934;-77
2022/08/10 07:28:17;;;;;;;;;;;;;;;22.69;32.58;97835.25;4941535;29;1278;-76
2022/08/10 07:30:42;;;;;;;;;;;;;;;22.79;32.52;97831.25;4909588;29;959;-76
2022/08/10 07:33:08;;;;;;;;;;;;;;;22.95;32.46;97835.19;4899408;29;1001;-77
2022/08/10 07:35:33;;;;;;;;;;;;;;;22.63;32.89;97829.34;4899348;29;1902;-77
2022/08/10 07:38:01;;;;;;;;;;;;;;;22.79;32.74;97824.78;4899323;29;1024;-77
2022/08/10 07:40:27;;;;;;;;;;;;;;;22.60;33.13;97821.75;4862433;29;1228;-76
2022/08/10 07:42:52;;;;;;;;;;;;;;;22.90;32.59;97815.91;4861458;29;1518;-76
2022/08/10 07:45:18;;;;;;;;;;;;;;;22.61;32.75;97825.38;4875013;29;1007;-77
2022/08/10 07:47:45;;;;;;;;;;;;;;;22.85;32.69;97829.44;4894428;29;1243;-76
2022/08/10 07:50:10;;;;;;;;;;;;;;;22.77;32.59;97832.97;4896649;29;2029;-76
2022/08/10 07:52:36;;;;;;;;;;;;;;;22.61;32.82;97829.03;4936825;29;934;-76
2022/08/10 07:55:02;;;;;;;;;;;;;;;22.62;33.03;97844.00;4941255;28;1982;-76
2022/08/10 07:57:29;;;;;;;;;;;;;;;22.63;32.87;97845.56;4935874;29;1403;-76
2022/08/10 07:59:56;;;;;;;;;;;;;;;22.70;33.01;97834.00;4921098;29;983;-77
2022/08/10 08:02:28;;;;;;;;;;;;;;;22.65;32.91;97823.22;4936606;29;1003;-76
2022/08/10 08:04:54;;;;;;;;;;;;;;;22.68;32.93;97836.47;4920961;29;1327;-77
2022/08/10 08:07:19;;;;;;;;;;;;;;;22.87;32.74;97832.59;4917617;29;982;-76
2022/08/10 08:09:45;;;;;;;;;;;;;;;22.59;32.80;97813.72;4916558;29;1485;-77
2022/08/10 08:12:10;;;;;;;;;;;;;;;22.85;32.86;97840.78;4932997;29;1610;-77
2022/08/10 08:14:36;;;;;;;;;;;;;;;22.59;33.14;97828.69;4936403;29;1993;-76
2022/08/10 08:17:01;;;;;;;;;;;;;;;22.88;32.66;97828.53;4898476;29;1515;-77
2022/08/10 08:19:27;;;;;;;;;;;;;;;22.82;33.00;97826.72;4898510;29;968;-77
2022/08/10 08:21:53;;;;;;;;;;;;;;;22.95;32.72;97829.53;4898151;29;924;-77
2022/08/10 08:24:18;;;;;;;;;;;;;;;22.68;33.26;97830.81;4866223;29;988;-76
2022/08/10 08:26:44;;;;;;;;;;;;;;;22.69;33.13;97821.06;4843071;29;942;-76
2022/08/10 08:29:10;;;;;;;;;;;;;;;22.78;32.99;97829.66;4889780;29;1565;-76
2022/08/10 08:31:35;;;;;;;;;;;;;;;22.70;33.00;97817.00;4897515;29;1702;-76
2022/08/10 08:34:00;;;;;;;;;;;;;;;22.86;32.67;97818.88;4898130;29;999;-77
2022/08/10 08:36:26;;;;;;;;;;;;;;;22.91;32.63;97832.50;4895722;29;1637;-77
2022/08/10 08:38:51;;;;;;;;;;;;;;;22.76;32.92;97832.16;4904748;29;1517;-76
2022/08/10 08:41:29;;;;;;;;;;;;;;;22.95;32.75;97827.50;4955573;29;995;-76
2022/08/10 08:43:57;;;;;;;;;;;;;;;22.75;32.96;97830.59;4955431;29;957;-77
2022/08/10 08:46:37;;;;;;;;;;;;;;;23.04;32.51;97819.06;4954998;29;964;-77
2022/08/10 08:49:03;;;;;;;;;;;;;;;22.76;32.72;97818.00;4972213;28;1331;-77
2022/08/10 08:51:44;;;;;;;;;;;;;;;22.57;33.17;97824.72;4992330;28;1545;-77
2022/08/10 08:54:26;;;;;;;;;;;;;;;22.85;33.21;97840.78;5032965;28;1981;-76
2022/08/10 08:57:13;;;;;;;;;;;;;;;22.88;32.91;97817.19;5020488;28;1226;-77
2022/08/10 08:59:57;;;;;;;;;;;;;;;22.71;33.22;97824.25;5017370;28;1913;-77
2022/08/10 09:02:30;;;;;;;;;;;;;;;22.65;33.62;97825.28;5013397;28;983;-76
2022/08/10 09:05:13;;;;;;;;;;;;;;;22.48;34.03;97816.88;5004902;28;1171;-76
2022/08/10 09:07:48;;;;;;;;;;;;;;;22.70;33.74;97805.63;5033178;28;944;-76
2022/08/10 09:10:16;;;;;;;;;;;;;;;22.84;33.43;97810.00;5016550;28;954;-77
2022/08/10 09:12:53;;;;;;;;;;;;;;;22.96;33.31;97812.06;5032974;28;1008;-77
2022/08/10 09:15:37;;;;;;;;;;;;;;;22.68;33.84;97813.78;5032589;28;2461;-76
2022/08/10 09:18:15;;;;;;;;;;;;;;;22.71;33.47;97818.56;5036445;28;1460;-77
2022/08/10 09:20:54;;;;;;;;;;;;;;;22.87;33.38;97826.13;5036249;28;1387;-77
2022/08/10 09:23:26;;;;;;;;;;;;;;;22.63;33.73;97820.03;5012821;28;1016;-76
2022/08/10 09:25:53;;;;;;;;;;;;;;;22.76;33.19;97820.81;5012992;28;1077;-76
2022/08/10 09:28:21;;;;;;;;;;;;;;;22.70;33.53;97810.53;4973921;28;945;-76
2022/08/10 09:30:56;;;;;;;;;;;;;;;22.78;33.38;97803.34;4973846;28;970;-77
2022/08/10 09:33:47;;;;;;;;;;;;;;;22.87;33.32;97812.72;4973910;28;1452;-76
2022/08/10 09:36:31;;;;;;;;;;;;;;;22.67;33.50;97817.88;4879121;29;1906;-76
2022/08/10 09:39:00;;;;;;;;;;;;;;;22.61;33.43;97817.66;4878789;29;983;-76
2022/08/10 09:41:36;;;;;;;;;;;;;;;22.76;33.29;97808.69;4879017;29;1048;-77
2022/08/10 09:44:02;;;;;;;;;;;;;;;22.82;33.34;97819.00;4878797;29;997;-76
2022/08/10 09:46:39;;;;;;;;;;;;;;;22.84;33.36;97815.69;4879273;29;1023;-76
2022/08/10 09:49:07;;;;;;;;;;;;;;;22.95;33.19;97821.00;4891952;29;1413;-76
2022/08/10 09:51:43;;;;;;;;;;;;;;;22.76;33.45;97815.16;4897552;29;916;-77
2022/08/10 09:54:15;;;;;;;;;;;;;;;23.02;32.99;97820.78;4889915;29;1964;-76
2022/08/10 09:56:55;;;;;;;;;;;;;;;22.66;33.63;97816.31;4916483;29;962;-76
2022/08/10 09:59:20;;;;;;;;;;;;;;;22.74;33.64;97823.34;4913345;28;967;-76
2022/08/10 10:01:46;;;;;;;;;;;;;;;22.76;33.53;97820.81;4954536;29;1018;-77
2022/08/10 10:04:21;;;;;;;;;;;;;;;23.04;32.93;97836.09;4971133;28;1375;-76
2022/08/10 10:06:57;;;;;;;;;;;;;;;22.69;33.54;97826.75;4973727;28;1121;-76
2022/08/10 10:09:31;;;;;;;;;;;;;;;22.88;33.00;97828.53;4954144;29;949;-76
2022/08/10 10:12:06;;;;;;;;;;;;;;;22.80;33.12;97826.38;4916918;29;1012;-76
2022/08/10 10:17:53;;;;;;;;;;;;;;;23.02;32.82;97832.13;4950659;29;1406;-76
2022/08/10 10:20:27;;;;;;;;;;;;;;;22.82;33.01;97830.34;4938547;29;1007;-76
2022/08/10 10:22:58;;;;;;;;;;;;;;;22.82;33.04;97830.34;4938257;29;986;-77
2022/08/10 10:25:28;;;;;;;;;;;;;;;22.97;32.55;97836.34;4938154;29;1106;-77
2022/08/10 10:28:12;;;;;;;;;;;;;;;22.90;32.73;97835.78;4938729;29;923;-77
2022/08/10 10:30:44;;;;;;;;;;;;;;;23.00;32.53;97845.97;4961561;28;964;-77
2022/08/10 10:33:19;;;;;;;;;;;;;;;22.76;33.17;97832.16;4976182;28;1327;-76
2022/08/10 10:35:51;;;;;;;;;;;;;;;22.99;32.55;97824.53;4976794;28;1910;-76
2022/08/10 10:38:16;;;;;;;;;;;;;;;22.81;32.90;97828.75;4961255;28;1015;-76
2022/08/10 10:40:44;;;;;;;;;;;;;;;22.74;33.31;97829.00;4931216;29;1027;-76
2022/08/10 10:43:32;;;;;;;;;;;;;;;22.94;33.06;97830.78;4927085;29;994;-76
2022/08/10 10:46:16;;;;;;;;;;;;;;;22.74;33.16;97823.34;4900303;29;1000;-76
2022/08/10 10:49:00;;;;;;;;;;;;;;;22.93;32.77;97821.47;4930248;29;1455;-76
2022/08/10 10:51:47;;;;;;;;;;;;;;;22.82;32.69;97813.31;4956821;29;994;-77
2022/08/10 10:54:18;;;;;;;;;;;;;;;23.06;32.30;97821.47;4953188;28;1977;-76
2022/08/10 10:57:02;;;;;;;;;;;;;;;22.47;33.11;97769.94;4960319;28;1211;-76
2022/08/10 10:59:27;;;;;;;;;;;;;;;22.96;32.68;97822.63;4976310;28;941;-77
2022/08/10 11:02:13;;;;;;;;;;;;;;;22.94;32.82;97825.09;4975109;28;2091;-76
2022/08/10 11:04:40;;;;;;;;;;;;;;;22.78;33.24;97823.97;4960256;28;947;-76
2022/08/10 11:07:13;;;;;;;;;;;;;;;22.98;32.75;97820.91;4959981;28;1135;-76
2022/08/10 11:09:41;;;;;;;;;;;;;;;22.80;32.80;97810.16;4976143;28;1001;-76
2022/08/10 11:12:13;;;;;;;;;;;;;;;22.93;32.67;97823.53;4989275;28;948;-76
2022/08/10 11:14:40;;;;;;;;;;;;;;;22.81;32.78;97820.25;4979159;28;1977;-76
2022/08/10 11:17:08;;;;;;;;;;;;;;;22.97;32.53;97824.19;4977944;28;1605;-76
2022/08/10 11:19:51;;;;;;;;;;;;;;;23.01;32.67;97805.00;4995337;28;999;-76
2022/08/10 11:22:19;;;;;;;;;;;;;;;22.67;33.10;97820.72;4982639;28;945;-76
2022/08/10 11:24:57;;;;;;;;;;;;;;;22.78;32.84;97829.66;4992312;28;1023;-76
2022/08/10 11:27:42;;;;;;;;;;;;;;;22.75;33.06;97824.91;4991522;28;1010;-76
2022/08/10 11:30:08;;;;;;;;;;;;;;;22.67;33.22;97817.88;4975863;28;959;-76
2022/08/10 11:32:52;;;;;;;;;;;;;;;22.98;32.78;97814.44;5006069;28;1412;-77
2022/08/10 11:35:36;;;;;;;;;;;;;;;22.90;32.92;97813.09;4995127;28;1906;-76
2022/08/10 11:38:11;;;;;;;;;;;;;;;22.91;32.97;97826.03;4995179;28;1033;-76
2022/08/10 11:40:49;;;;;;;;;;;;;;;22.88;32.86;97822.06;5004407;28;995;-77
2022/08/10 11:43:19;;;;;;;;;;;;;;;23.09;32.49;97831.88;5014927;28;1020;-76
2022/08/10 11:45:46;;;;;;;;;;;;;;;22.93;32.69;97823.53;5013670;28;1466;-76
2022/08/10 11:48:12;;;;;;;;;;;;;;;22.99;32.63;97818.84;4975272;28;1034;-77
2022/08/10 11:51:04;;;;;;;;;;;;;;;23.04;32.48;97823.94;4975440;28;1005;-77
2022/08/10 11:53:30;;;;;;;;;;;;;;;22.99;32.49;97828.16;4955844;29;970;-76
2022/08/10 11:55:56;;;;;;;;;;;;;;;22.84;32.77;97812.84;4955853;29;1899;-77
2022/08/10 12:01:07;;;;;;;;;;;;;;;22.89;32.73;97817.97;4903778;29;1382;-76
2022/08/10 12:03:35;;;;;;;;;;;;;;;22.79;32.77;97802.88;4898726;29;1582;-76
2022/08/10 12:06:00;;;;;;;;;;;;;;;22.68;32.93;97807.34;4880071;29;1006;-76
2022/08/10 12:08:26;;;;;;;;;;;;;;;22.72;32.64;97820.16;4842520;29;948;-77
2022/08/10 12:10:51;;;;;;;;;;;;;;;22.92;32.58;97824.78;4824762;29;1131;-76
2022/08/10 12:13:23;;;;;;;;;;;;;;;23.08;32.51;97818.94;4824656;29;1008;-76
2022/08/10 12:15:54;;;;;;;;;;;;;;;22.94;32.56;97819.44;4823264;29;1915;-76
2022/08/10 12:18:28;;;;;;;;;;;;;;;22.80;33.00;97815.81;4844692;29;1419;-76
2022/08/10 12:20:57;;;;;;;;;;;;;;;22.82;32.64;97824.66;4861374;29;995;-77
2022/08/10 12:23:25;;;;;;;;;;;;;;;22.91;32.65;97814.69;4878960;29;1067;-76
2022/08/10 12:25:59;;;;;;;;;;;;;;;22.90;32.68;97827.28;4860952;29;1184;-76
2022/08/10 12:28:28;;;;;;;;;;;;;;;22.95;32.69;97815.34;4846654;29;986;-77
2022/08/10 12:30:55;;;;;;;;;;;;;;;22.96;32.49;97816.94;4865022;29;1611;-76
2022/08/10 12:33:34;;;;;;;;;;;;;;;22.94;32.75;97825.09;4860755;29;1048;-77
2022/08/10 12:36:00;;;;;;;;;;;;;;;22.75;32.82;97822.06;4860771;29;1907;-76
2022/08/10 12:38:48;;;;;;;;;;;;;;;22.91;32.84;97815.50;4861314;29;940;-76
2022/08/10 12:41:23;;;;;;;;;;;;;;;22.75;33.04;97830.59;4805878;29;1070;-76
2022/08/10 12:43:51;;;;;;;;;;;;;;;22.99;32.50;97831.00;4806479;29;1081;-76
2022/08/10 12:46:18;;;;;;;;;;;;;;;22.94;32.56;97822.28;4805283;29;1366;-76
2022/08/10 12:48:49;;;;;;;;;;;;;;;23.06;32.41;97832.81;4799509;29;1206;-76
2022/08/10 12:51:26;;;;;;;;;;;;;;;22.85;32.71;97829.44;4827560;29;952;-76
2022/08/10 12:53:51;;;;;;;;;;;;;;;23.03;32.35;97845.06;4831848;29;1248;-77
2022/08/10 12:56:27;;;;;;;;;;;;;;;22.96;32.60;97836.81;4841466;29;1992;-76
2022/08/10 12:58:52;;;;;;;;;;;;;;;22.86;32.51;97824.53;4842092;29;989;-76
2022/08/10 13:01:18;;;;;;;;;;;;;;;22.97;32.41;97835.56;4845399;29;984;-76
2022/08/10 13:03:46;;;;;;;;;;;;;;;22.97;32.47;97830.66;4865280;29;1104;-77
2022/08/10 13:06:12;;;;;;;;;;;;;;;22.99;32.25;97828.16;4905936;29;1477;-76
2022/08/10 13:11:22;;;;;;;;;;;;;;;22.94;32.35;97837.25;4877999;29;1473;-76
2022/08/10 13:13:47;;;;;;;;;;;;;;;23.10;32.26;97833.44;4859816;29;1515;-77
2022/08/10 13:16:13;;;;;;;;;;;;;;;22.84;32.65;97830.66;4860351;29;1911;-76
2022/08/10 13:18:41;;;;;;;;;;;;;;;22.85;32.53;97822.97;4856074;29;1421;-76
2022/08/10 13:21:13;;;;;;;;;;;;;;;22.69;32.72;97815.41;4857613;29;953;-76
2022/08/10 13:23:45;;;;;;;;;;;;;;;22.88;32.64;97825.69;4857512;29;998;-76